Accueil
METAR-TAF:

METAR-TAF

Aéroports :

Jersey,

Aéroport de Jersey

latitude: 49-13N, longitude: 002-12W, altitude: 84 m

Observation

Le bulletin a été fait il y a 15 minutes, à 00:20 UTC
Vent 11 kt de est/nord-est
Température 4°C
Humidité 75%
Pression 1022 hPa
Visibilité 10 km ou plus

METAR: EGJJ 220020Z AUTO 06011KT 9999 NCD 04/M00 Q1022

Heure: 00:35 (00:35 UTC)

Prévision

Le bulletin a été fait il y a 1 heure et 36 minutes, à 22:59 UTC
Prévision valable du 22 à 00 UTC au 22 à 09 UTC
Vent 13 kt de est/nord-est
Visibilité 10 km ou plus
Nuages épars à une hauteur de 2000 ft
Probabilité 30% :
Temporairement
du 22 à 03 UTC au 22 à 09 UTC
Visibilité: 6000 m
Nuages fragmentés à une hauteur de 1500 ft

TAF: EGJJ 212259Z 2200/2209 07013KT 9999 SCT020 PROB30 TEMPO 2203/2209 6000 BKN015

Observations et prévisions météorologiques de plus de 4000 aéroports (messages METAR et TAF).

Les stations disponibles sont représentées par des disques jaunes et rouges sur la carte.

Passer la souris dessus pour voir le nom de la station.

Cliquer dessus pour voir les observations et prévisions météorologiques.

Pour changer de carte: cliquez sur les boutons verts avec une croix noire pour zoomer, sur le bouton vert avec un tiret pour effectuer un zoom arrière, ou sur les flèches vertes pour les cartes adjacentes.


METAR-TAF: